Time;durP1;ratioP1;P1;durP2;ratioP2;P2;SDS_P1;SDS_P2;PMS_P1;PMS_P2;Temp;Humidity;BMP_temperature;BMP_pressure;BME280_temperature;BME280_humidity;BME280_pressure;Samples;Min_cycle;Max_cycle;Signal;HPM_P1;HPM_P2
2023/09/16 00:02:00;;;;;;;3.08;2.45;;;19.50;54.80;;;;;;4976496;28;20061;-63
2023/09/16 00:04:29;;;;;;;3.63;2.45;;;19.50;54.80;;;;;;4978544;28;20060;-63
2023/09/16 00:06:56;;;;;;;4.03;2.47;;;19.50;54.90;;;;;;4978036;28;20046;-62
2023/09/16 00:09:24;;;;;;;3.10;2.45;;;19.50;54.90;;;;;;4977460;28;20603;-62
2023/09/16 00:11:51;;;;;;;5.65;2.65;;;19.50;55.00;;;;;;4977106;28;20085;-63
2023/09/16 00:14:19;;;;;;;5.35;2.63;;;19.50;54.90;;;;;;4978032;28;20066;-62
2023/09/16 00:16:46;;;;;;;3.80;2.92;;;19.40;54.90;;;;;;4978758;28;20130;-62
2023/09/16 00:19:13;;;;;;;6.50;3.03;;;19.40;54.90;;;;;;4979238;28;20050;-63
2023/09/16 00:21:42;;;;;;;3.05;2.70;;;19.40;54.90;;;;;;4975872;28;20054;-63
2023/09/16 00:24:11;;;;;;;3.00;2.70;;;19.40;54.80;;;;;;4979315;28;20065;-63
2023/09/16 00:26:39;;;;;;;4.50;3.08;;;19.40;54.80;;;;;;4978536;28;20050;-63
2023/09/16 00:29:06;;;;;;;4.78;3.00;;;19.40;54.80;;;;;;4979706;28;20046;-63
2023/09/16 00:31:34;;;;;;;4.07;3.28;;;19.40;54.90;;;;;;4975802;28;20046;-63
2023/09/16 00:34:01;;;;;;;5.65;2.97;;;19.30;54.80;;;;;;4979158;28;20176;-63
2023/09/16 00:36:29;;;;;;;4.05;3.22;;;19.30;54.90;;;;;;4980298;28;20517;-63
2023/09/16 00:38:57;;;;;;;4.28;2.83;;;19.30;54.90;;;;;;4980810;28;20503;-63
2023/09/16 00:41:25;;;;;;;3.47;2.65;;;19.30;55.00;;;;;;4972476;28;20510;-62
2023/09/16 00:43:53;;;;;;;3.75;2.72;;;19.30;55.00;;;;;;4978542;28;20061;-62
2023/09/16 00:46:20;;;;;;;3.33;2.47;;;19.20;55.00;;;;;;4977302;28;20050;-63
2023/09/16 00:48:47;;;;;;;3.92;2.65;;;19.30;55.20;;;;;;4977623;28;20054;-63
2023/09/16 00:51:15;;;;;;;5.20;2.80;;;19.20;55.20;;;;;;4977671;28;20054;-62
2023/09/16 00:53:45;;;;;;;4.55;2.88;;;19.20;55.30;;;;;;4979258;28;20061;-62
2023/09/16 00:56:14;;;;;;;4.10;3.15;;;19.20;55.40;;;;;;4979021;28;20411;-63
2023/09/16 00:58:42;;;;;;;4.32;2.83;;;19.20;55.40;;;;;;4979931;28;20054;-63
2023/09/16 01:01:10;;;;;;;4.50;3.42;;;19.20;55.50;;;;;;4976944;28;20621;-63
2023/09/16 01:03:38;;;;;;;3.20;2.83;;;19.20;55.60;;;;;;4979373;28;20050;-62
2023/09/16 01:06:08;;;;;;;4.65;3.28;;;19.10;55.60;;;;;;4976755;28;20624;-62
2023/09/16 01:08:36;;;;;;;3.45;2.63;;;19.10;55.70;;;;;;4978150;28;20442;-63
2023/09/16 01:11:04;;;;;;;3.80;2.80;;;19.10;55.70;;;;;;4980143;28;20046;-62
2023/09/16 01:13:34;;;;;;;4.70;3.22;;;19.20;55.80;;;;;;4980095;28;20050;-62
2023/09/16 01:16:11;;;;;;;3.55;3.00;;;19.10;55.90;;;;;;4980019;28;20046;-61
2023/09/16 01:18:46;;;;;;;6.35;3.35;;;19.10;55.90;;;;;;4980912;28;20046;-62
2023/09/16 01:21:15;;;;;;;5.75;3.20;;;19.10;56.00;;;;;;4979997;28;20058;-63
2023/09/16 01:23:44;;;;;;;3.58;2.85;;;19.10;56.00;;;;;;4979096;28;20502;-62
2023/09/16 01:26:12;;;;;;;5.78;3.30;;;19.10;56.00;;;;;;4979632;28;20426;-62
2023/09/16 01:28:39;;;;;;;4.20;2.72;;;19.10;56.00;;;;;;4982242;28;20050;-63
2023/09/16 01:31:08;;;;;;;5.90;3.10;;;19.10;56.10;;;;;;4983035;28;20050;-62
2023/09/16 01:33:40;;;;;;;3.45;2.97;;;19.20;56.20;;;;;;4983538;28;20062;-63
2023/09/16 01:36:14;;;;;;;3.40;2.92;;;19.10;56.20;;;;;;4983006;28;20058;-62
2023/09/16 01:38:45;;;;;;;4.93;3.00;;;19.20;56.30;;;;;;4982916;28;20053;-63
2023/09/16 01:41:16;;;;;;;7.63;3.42;;;19.20;56.30;;;;;;4981203;28;20062;-62
2023/09/16 01:43:44;;;;;;;6.00;2.97;;;19.20;56.30;;;;;;4981221;28;20053;-63
2023/09/16 01:46:12;;;;;;;6.20;3.00;;;19.20;56.30;;;;;;4983070;28;20061;-63
2023/09/16 01:48:39;;;;;;;6.00;3.30;;;19.20;56.30;;;;;;4982696;28;20058;-62
2023/09/16 01:51:06;;;;;;;3.47;2.90;;;19.10;56.30;;;;;;4982526;28;20054;-62
2023/09/16 01:53:34;;;;;;;3.45;2.92;;;19.20;56.30;;;;;;4981985;28;20409;-62
2023/09/16 01:56:01;;;;;;;4.00;2.97;;;19.20;56.30;;;;;;4984195;28;20058;-63
2023/09/16 01:58:31;;;;;;;4.57;3.28;;;19.10;56.30;;;;;;4983119;28;20069;-62
2023/09/16 02:01:01;;;;;;;4.20;3.05;;;19.10;56.30;;;;;;4982177;28;20057;-62
2023/09/16 02:03:28;;;;;;;3.38;2.70;;;19.10;56.80;;;;;;4981281;28;20054;-62
2023/09/16 02:05:55;;;;;;;3.78;2.95;;;19.10;56.30;;;;;;4982124;28;20529;-62
2023/09/16 02:08:22;;;;;;;4.25;3.25;;;19.10;56.40;;;;;;4982990;28;20050;-62
2023/09/16 02:10:49;;;;;;;3.50;2.75;;;19.20;56.40;;;;;;4984082;28;20053;-62
2023/09/16 02:13:17;;;;;;;5.43;3.50;;;19.20;56.40;;;;;;4983158;28;20053;-61
2023/09/16 02:15:48;;;;;;;5.38;3.15;;;19.20;56.30;;;;;;4982569;28;20050;-62
2023/09/16 02:18:15;;;;;;;4.30;3.28;;;19.10;56.30;;;;;;4983671;28;21158;-63
2023/09/16 02:20:44;;;;;;;7.28;3.42;;;19.20;56.30;;;;;;4982224;28;20058;-63
2023/09/16 02:23:12;;;;;;;5.38;3.03;;;19.20;56.40;;;;;;4982476;28;20054;-62
2023/09/16 02:25:39;;;;;;;4.45;3.10;;;19.10;56.30;;;;;;4983527;28;20046;-63
2023/09/16 02:28:06;;;;;;;3.50;2.83;;;19.20;56.30;;;;;;4982083;28;20054;-62
2023/09/16 02:30:35;;;;;;;3.78;3.10;;;19.20;56.40;;;;;;4983605;28;20051;-63
2023/09/16 02:33:05;;;;;;;4.63;3.10;;;19.20;56.40;;;;;;4982934;28;20414;-62
2023/09/16 02:35:32;;;;;;;4.03;3.33;;;19.10;56.50;;;;;;4982084;28;20055;-63
2023/09/16 02:38:02;;;;;;;4.22;3.42;;;19.20;56.50;;;;;;4980910;28;20065;-61
2023/09/16 02:40:29;;;;;;;3.13;2.70;;;19.20;56.50;;;;;;4983981;28;20050;-63
2023/09/16 02:42:57;;;;;;;4.22;3.20;;;19.10;56.50;;;;;;4982465;28;20061;-62
2023/09/16 02:45:24;;;;;;;4.63;3.30;;;19.20;56.60;;;;;;4983824;28;20407;-62
2023/09/16 02:47:51;;;;;;;3.63;2.53;;;19.20;56.60;;;;;;4983772;28;20050;-62
2023/09/16 02:50:20;;;;;;;4.63;3.25;;;19.20;56.60;;;;;;4981417;28;20069;-62
2023/09/16 02:52:47;;;;;;;3.90;2.95;;;19.20;56.60;;;;;;4982541;28;20530;-63
2023/09/16 02:55:15;;;;;;;4.85;3.33;;;19.10;56.60;;;;;;4984041;28;20058;-62
2023/09/16 02:57:42;;;;;;;3.92;2.88;;;19.20;56.60;;;;;;4984050;28;20065;-62
2023/09/16 03:00:10;;;;;;;3.45;3.00;;;19.20;56.70;;;;;;4983777;28;20089;-63
2023/09/16 03:02:37;;;;;;;4.30;3.25;;;19.10;56.60;;;;;;4983677;28;20061;-62
2023/09/16 03:05:05;;;;;;;3.80;3.25;;;19.20;56.70;;;;;;4981860;28;20050;-63
2023/09/16 03:07:33;;;;;;;4.20;3.30;;;19.10;56.70;;;;;;4981089;28;20490;-62
2023/09/16 03:10:01;;;;;;;3.40;2.97;;;19.10;57.10;;;;;;4981566;28;20054;-63
2023/09/16 03:12:28;;;;;;;4.40;2.70;;;19.20;56.70;;;;;;4982290;28;20062;-63
2023/09/16 03:14:55;;;;;;;4.63;3.10;;;19.20;56.70;;;;;;4980887;28;20054;-63
2023/09/16 03:17:22;;;;;;;4.45;3.13;;;19.20;56.70;;;;;;4982464;28;20406;-62
2023/09/16 03:19:50;;;;;;;4.85;3.55;;;19.10;56.60;;;;;;4980859;28;20525;-62
2023/09/16 03:22:17;;;;;;;3.97;3.20;;;19.20;56.70;;;;;;4981071;28;20065;-62
2023/09/16 03:24:45;;;;;;;4.05;3.10;;;19.20;56.70;;;;;;4981037;28;20486;-63
2023/09/16 03:27:13;;;;;;;4.28;3.05;;;19.20;56.70;;;;;;4981445;28;20054;-63
2023/09/16 03:29:40;;;;;;;6.65;2.85;;;19.20;56.70;;;;;;4981063;28;20062;-63
2023/09/16 03:32:08;;;;;;;4.10;2.90;;;19.10;56.70;;;;;;4980022;28;20065;-62
2023/09/16 03:34:35;;;;;;;4.68;3.00;;;19.20;56.80;;;;;;4980020;28;20065;-63
2023/09/16 03:37:02;;;;;;;4.13;3.20;;;19.10;56.70;;;;;;4979797;28;20065;-62
2023/09/16 03:39:30;;;;;;;3.15;2.85;;;19.10;56.70;;;;;;4974447;28;20061;-63
2023/09/16 03:41:59;;;;;;;4.57;3.03;;;19.10;56.70;;;;;;4978535;28;20387;-63
2023/09/16 03:44:27;;;;;;;3.67;3.17;;;19.10;56.70;;;;;;4980986;28;20061;-62
2023/09/16 03:46:54;;;;;;;3.65;2.95;;;19.20;56.80;;;;;;4979439;28;20077;-62
2023/09/16 03:49:22;;;;;;;4.45;3.00;;;19.20;56.80;;;;;;4978563;28;20065;-62
2023/09/16 03:51:49;;;;;;;4.53;3.25;;;19.10;56.70;;;;;;4980853;28;20077;-63
2023/09/16 03:54:17;;;;;;;4.32;3.30;;;19.10;56.70;;;;;;4981164;28;21078;-63
2023/09/16 03:56:44;;;;;;;6.22;3.35;;;19.10;56.80;;;;;;4979202;28;20070;-63
2023/09/16 03:59:13;;;;;;;3.75;3.08;;;19.10;56.70;;;;;;4980360;28;20491;-63
2023/09/16 04:01:41;;;;;;;3.50;3.17;;;19.20;56.80;;;;;;4978042;28;20074;-63
2023/09/16 04:04:08;;;;;;;4.60;3.25;;;19.20;56.80;;;;;;4979771;28;20645;-63
2023/09/16 04:06:35;;;;;;;3.58;3.10;;;19.20;56.80;;;;;;4977699;28;20056;-62
2023/09/16 04:09:03;;;;;;;3.85;3.20;;;19.20;56.80;;;;;;4979726;28;20062;-62
2023/09/16 04:11:30;;;;;;;3.45;3.13;;;19.20;56.80;;;;;;4977704;28;20050;-63
2023/09/16 04:13:57;;;;;;;3.65;3.28;;;19.20;56.80;;;;;;4974082;28;20054;-63
2023/09/16 04:16:26;;;;;;;3.33;3.00;;;19.20;56.70;;;;;;4976423;28;21008;-66
2023/09/16 04:18:57;;;;;;;4.05;3.30;;;19.10;56.70;;;;;;4975740;28;20053;-65
2023/09/16 04:21:26;;;;;;;3.92;3.08;;;19.20;56.80;;;;;;4978472;28;20054;-60
2023/09/16 04:23:54;;;;;;;4.32;2.97;;;19.20;56.80;;;;;;4973660;28;20057;-57
2023/09/16 04:26:21;;;;;;;3.88;2.90;;;19.20;56.80;;;;;;4977127;28;20050;-59
2023/09/16 04:34:58;;;;;;;4.63;3.05;;;19.20;56.70;;;;;;5302810;23;20539;-62
2023/09/16 04:37:25;;;;;;;;;;;19.20;56.80;;;;;;4958193;28;20058;-57
2023/09/16 04:39:52;;;;;;;3.92;3.05;;;19.20;56.70;;;;;;4960088;28;20696;-59
2023/09/16 04:42:20;;;;;;;5.07;3.45;;;19.20;56.60;;;;;;4959186;28;20054;-57
2023/09/16 04:44:48;;;;;;;4.72;2.95;;;19.20;56.60;;;;;;4959567;28;20050;-58
2023/09/16 04:47:15;;;;;;;4.60;3.00;;;19.20;56.70;;;;;;4960099;28;20050;-57
2023/09/16 04:49:43;;;;;;;3.45;3.08;;;19.20;56.70;;;;;;4957816;28;20059;-59
2023/09/16 04:52:12;;;;;;;9.73;3.10;;;19.20;56.70;;;;;;4957607;28;20047;-60
2023/09/16 04:54:45;;;;;;;4.15;2.88;;;19.20;56.80;;;;;;4959319;28;20053;-60
2023/09/16 04:57:13;;;;;;;4.20;3.20;;;19.10;56.80;;;;;;4959145;28;20054;-57
2023/09/16 04:59:41;;;;;;;3.40;2.78;;;19.20;56.80;;;;;;4960422;28;20055;-60
2023/09/16 05:02:08;;;;;;;4.10;3.13;;;19.20;56.80;;;;;;4955728;28;20482;-57
2023/09/16 05:04:36;;;;;;;4.38;3.05;;;19.10;56.80;;;;;;4953954;28;20517;-59
2023/09/16 05:07:04;;;;;;;5.47;2.80;;;19.20;56.80;;;;;;4954053;28;21180;-57
2023/09/16 05:09:33;;;;;;;4.20;3.00;;;19.10;56.80;;;;;;4959254;28;20062;-57
2023/09/16 05:12:00;;;;;;;4.63;3.10;;;19.20;56.80;;;;;;4952285;28;20391;-57
2023/09/16 05:14:27;;;;;;;4.72;3.35;;;19.10;56.70;;;;;;4957073;28;20059;-57
2023/09/16 05:16:54;;;;;;;3.67;3.00;;;19.10;56.80;;;;;;4954219;28;20054;-60
2023/09/16 05:19:22;;;;;;;4.53;3.10;;;19.20;56.80;;;;;;4958866;28;20059;-56
2023/09/16 05:21:49;;;;;;;3.95;3.05;;;19.20;56.80;;;;;;4953230;28;20509;-57
2023/09/16 05:24:16;;;;;;;4.03;2.85;;;19.10;56.80;;;;;;4958832;28;20574;-61
2023/09/16 05:26:45;;;;;;;6.05;3.10;;;19.10;56.80;;;;;;4957769;28;20058;-60
2023/09/16 05:29:12;;;;;;;4.28;2.67;;;19.10;56.80;;;;;;4960403;28;20055;-57
2023/09/16 05:31:40;;;;;;;4.45;3.15;;;19.10;56.80;;;;;;4955311;28;20051;-57
2023/09/16 05:34:07;;;;;;;4.57;3.08;;;19.10;56.80;;;;;;4951729;28;20069;-57
2023/09/16 05:36:34;;;;;;;3.00;2.70;;;19.10;56.90;;;;;;4936912;28;20059;-57
2023/09/16 05:39:02;;;;;;;4.20;3.03;;;19.10;56.90;;;;;;4939325;28;20082;-57
2023/09/16 05:41:29;;;;;;;4.30;3.05;;;19.10;56.90;;;;;;4938998;28;20055;-57
2023/09/16 05:43:58;;;;;;;3.53;2.75;;;19.10;56.90;;;;;;4934100;28;20055;-60
2023/09/16 05:46:27;;;;;;;5.88;3.22;;;19.10;56.90;;;;;;4934800;28;20119;-57
2023/09/16 05:49:06;;;;;;;4.70;2.72;;;19.10;57.00;;;;;;4937228;28;20054;-57
2023/09/16 05:51:33;;;;;;;4.53;3.10;;;19.10;57.10;;;;;;4937657;28;20047;-63
2023/09/16 05:54:01;;;;;;;5.25;3.20;;;19.10;57.10;;;;;;4939986;28;20059;-62
2023/09/16 05:56:28;;;;;;;6.38;2.72;;;19.10;57.10;;;;;;4940898;28;20518;-63
2023/09/16 05:58:55;;;;;;;3.78;2.90;;;19.10;57.10;;;;;;4940563;28;20059;-63
2023/09/16 06:01:24;;;;;;;4.80;3.17;;;19.10;57.10;;;;;;4936706;28;20664;-63
2023/09/16 06:03:52;;;;;;;4.20;2.58;;;19.10;57.20;;;;;;4939367;28;20055;-62
2023/09/16 06:06:20;;;;;;;3.75;2.80;;;19.10;57.20;;;;;;4938684;28;20051;-63
2023/09/16 06:08:48;;;;;;;4.72;2.85;;;19.10;57.20;;;;;;4937066;28;20407;-62
2023/09/16 06:11:15;;;;;;;3.97;2.67;;;19.20;57.20;;;;;;4939219;28;20052;-62
2023/09/16 06:13:42;;;;;;;4.22;3.08;;;19.20;57.20;;;;;;4941470;28;20059;-62
2023/09/16 06:16:10;;;;;;;3.75;3.03;;;19.20;57.20;;;;;;4943710;28;20059;-62
2023/09/16 06:18:39;;;;;;;4.55;3.20;;;19.20;57.20;;;;;;4942368;28;20054;-62
2023/09/16 06:21:06;;;;;;;4.53;3.15;;;19.20;57.20;;;;;;4937687;28;21026;-62
2023/09/16 06:23:33;;;;;;;4.07;3.20;;;19.20;57.20;;;;;;4942067;28;20969;-62
2023/09/16 06:26:00;;;;;;;3.58;2.95;;;19.30;57.20;;;;;;4942094;28;20639;-62
2023/09/16 06:28:28;;;;;;;4.95;3.03;;;19.30;57.20;;;;;;4940912;28;20054;-62
2023/09/16 06:30:55;;;;;;;3.60;3.20;;;19.30;57.20;;;;;;4944926;28;20491;-61
2023/09/16 06:33:22;;;;;;;4.93;3.35;;;19.30;57.10;;;;;;4943093;28;20062;-62
2023/09/16 06:35:51;;;;;;;4.78;3.35;;;19.40;57.30;;;;;;4944452;28;20499;-62
2023/09/16 06:38:19;;;;;;;4.38;3.15;;;19.40;57.30;;;;;;4944623;28;20487;-62
2023/09/16 06:40:46;;;;;;;4.55;3.35;;;19.40;57.20;;;;;;4944403;28;20074;-62
2023/09/16 06:43:13;;;;;;;7.72;3.15;;;19.40;57.20;;;;;;4946501;28;20055;-61
2023/09/16 06:45:40;;;;;;;3.97;3.33;;;19.50;57.30;;;;;;4943526;28;20495;-62
2023/09/16 06:48:08;;;;;;;3.40;2.60;;;19.50;57.30;;;;;;4945674;28;20055;-62
2023/09/16 06:50:35;;;;;;;2.65;2.42;;;19.50;57.30;;;;;;4942671;28;20070;-62
2023/09/16 06:53:04;;;;;;;5.10;2.88;;;19.50;57.30;;;;;;4945424;28;20047;-60
2023/09/16 06:55:31;;;;;;;3.35;2.80;;;19.60;57.30;;;;;;4944778;28;20082;-64
2023/09/16 06:57:59;;;;;;;6.20;3.13;;;19.60;57.30;;;;;;4946279;28;20407;-63
2023/09/16 07:00:26;;;;;;;4.60;3.00;;;19.70;57.30;;;;;;4945191;28;20066;-62
2023/09/16 07:02:53;;;;;;;5.43;3.35;;;19.70;57.30;;;;;;4944564;28;20058;-63
2023/09/16 07:05:20;;;;;;;5.35;3.50;;;19.70;57.30;;;;;;4944590;28;20407;-62
2023/09/16 07:07:48;;;;;;;5.70;3.40;;;19.70;57.20;;;;;;4944709;28;20055;-63
2023/09/16 07:10:16;;;;;;;3.70;3.13;;;19.80;57.20;;;;;;4943474;28;20066;-64
2023/09/16 07:12:44;;;;;;;7.50;4.40;;;19.80;57.20;;;;;;4945218;28;20047;-62
2023/09/16 07:15:11;;;;;;;6.82;4.43;;;19.90;57.20;;;;;;4945365;28;20388;-62
2023/09/16 07:17:38;;;;;;;8.88;5.40;;;19.90;57.10;;;;;;4945679;28;20055;-62
2023/09/16 07:20:06;;;;;;;8.40;5.88;;;19.90;57.10;;;;;;4942349;28;20530;-62
2023/09/16 07:22:34;;;;;;;8.90;6.05;;;20.00;57.20;;;;;;4944519;28;20059;-60
2023/09/16 07:25:01;;;;;;;9.25;5.38;;;20.10;57.10;;;;;;4944177;28;20957;-62
2023/09/16 07:27:30;;;;;;;8.40;5.13;;;20.10;57.10;;;;;;4943689;28;20059;-64
2023/09/16 07:29:57;;;;;;;8.18;4.32;;;20.10;57.10;;;;;;4944445;28;20506;-63
2023/09/16 07:32:24;;;;;;;7.50;4.43;;;20.10;57.10;;;;;;4942799;28;20043;-62
2023/09/16 07:34:52;;;;;;;5.97;4.65;;;20.20;57.10;;;;;;4943153;28;20523;-62
2023/09/16 07:37:19;;;;;;;6.57;4.55;;;20.20;57.10;;;;;;4943159;28;20815;-63
2023/09/16 07:39:47;;;;;;;6.80;4.47;;;20.30;57.30;;;;;;4943376;28;20530;-63
2023/09/16 07:42:15;;;;;;;6.78;4.30;;;20.30;57.30;;;;;;4944189;28;20066;-62
2023/09/16 07:44:43;;;;;;;6.93;4.28;;;20.30;57.30;;;;;;4944099;28;20066;-63
2023/09/16 07:47:10;;;;;;;6.30;3.20;;;20.40;57.40;;;;;;4944278;28;20432;-61
2023/09/16 07:49:38;;;;;;;5.43;3.83;;;20.40;57.30;;;;;;4944440;28;20054;-64
2023/09/16 07:52:05;;;;;;;6.25;3.17;;;20.50;57.40;;;;;;4940533;28;20055;-62
2023/09/16 07:54:32;;;;;;;4.63;3.50;;;20.50;57.30;;;;;;4945058;28;20519;-62
2023/09/16 07:56:59;;;;;;;6.10;3.60;;;20.50;57.30;;;;;;4943681;28;20054;-63
2023/09/16 07:59:28;;;;;;;4.15;3.30;;;20.60;57.30;;;;;;4944348;28;20063;-64
2023/09/16 08:01:56;;;;;;;4.50;3.33;;;20.60;57.30;;;;;;4942945;28;20074;-62
2023/09/16 08:04:23;;;;;;;3.80;3.38;;;20.70;57.50;;;;;;4944388;28;20059;-63
2023/09/16 08:06:52;;;;;;;5.03;3.70;;;20.70;57.40;;;;;;4941981;28;20400;-63
2023/09/16 08:09:19;;;;;;;4.85;3.45;;;20.80;57.40;;;;;;4940306;28;20078;-62
2023/09/16 08:11:46;;;;;;;7.30;4.07;;;20.80;57.40;;;;;;4939736;28;20062;-63
2023/09/16 08:14:14;;;;;;;5.35;3.63;;;20.80;57.40;;;;;;4938519;28;20047;-57
2023/09/16 08:16:41;;;;;;;4.68;3.33;;;20.90;57.40;;;;;;4940043;28;20066;-57
2023/09/16 08:19:10;;;;;;;4.65;3.35;;;20.90;57.40;;;;;;4937910;28;20509;-57
2023/09/16 08:21:37;;;;;;;4.63;3.55;;;21.00;57.40;;;;;;4937954;28;20431;-57
2023/09/16 08:24:05;;;;;;;4.38;3.60;;;21.00;57.40;;;;;;4940423;28;20051;-62
2023/09/16 08:26:32;;;;;;;5.40;3.75;;;21.10;57.30;;;;;;4939193;28;20059;-59
2023/09/16 08:28:59;;;;;;;4.65;3.50;;;21.20;57.40;;;;;;4941860;28;20058;-58
2023/09/16 08:31:26;;;;;;;3.65;3.35;;;21.20;57.40;;;;;;4938221;28;20051;-58
2023/09/16 08:33:55;;;;;;;4.22;3.45;;;21.20;57.30;;;;;;4937733;28;20059;-57
2023/09/16 08:36:24;;;;;;;8.32;3.38;;;21.20;57.20;;;;;;4935352;28;20047;-58
2023/09/16 08:38:51;;;;;;;3.85;3.22;;;21.30;57.30;;;;;;4933845;28;20059;-56
2023/09/16 08:41:27;;;;;;;5.07;3.70;;;21.30;57.30;;;;;;4940980;28;20098;-60
2023/09/16 08:43:59;;;;;;;4.53;3.25;;;21.40;57.30;;;;;;4940894;28;20059;-59
2023/09/16 08:46:30;;;;;;;4.68;3.80;;;21.40;57.20;;;;;;4939147;28;20055;-59
2023/09/16 08:49:01;;;;;;;6.55;3.60;;;21.50;57.30;;;;;;4938997;28;20059;-59
2023/09/16 08:51:32;;;;;;;3.67;3.13;;;21.50;57.20;;;;;;4939576;28;20055;-57
2023/09/16 08:54:01;;;;;;;5.63;3.78;;;21.60;57.30;;;;;;4940776;28;20047;-56
2023/09/16 08:56:29;;;;;;;4.75;3.47;;;21.60;57.40;;;;;;4942565;28;20074;-58
2023/09/16 08:58:58;;;;;;;6.60;4.00;;;21.70;57.50;;;;;;4941636;28;20055;-56
2023/09/16 09:01:26;;;;;;;3.55;3.25;;;21.70;57.40;;;;;;4942982;28;20054;-57
2023/09/16 09:03:55;;;;;;;4.78;4.03;;;21.80;57.20;;;;;;4942250;28;20055;-56
2023/09/16 09:06:26;;;;;;;5.13;3.80;;;21.80;57.10;;;;;;4939267;28;20054;-59
2023/09/16 09:08:54;;;;;;;4.45;3.50;;;21.90;57.00;;;;;;4939925;28;20061;-57
2023/09/16 09:11:23;;;;;;;5.05;4.10;;;21.90;56.90;;;;;;4941819;28;20051;-57
2023/09/16 09:13:51;;;;;;;5.53;3.78;;;22.00;56.90;;;;;;4942016;28;20054;-57
2023/09/16 09:16:20;;;;;;;5.30;3.47;;;22.00;56.70;;;;;;4940481;28;20055;-57
2023/09/16 09:18:49;;;;;;;6.43;3.90;;;22.10;56.80;;;;;;4939448;28;22008;-57
2023/09/16 09:21:17;;;;;;;4.25;3.78;;;22.10;56.70;;;;;;4940077;28;20064;-58
2023/09/16 09:23:44;;;;;;;5.32;4.00;;;22.10;56.60;;;;;;4942379;28;20055;-62
2023/09/16 09:26:14;;;;;;;6.38;3.75;;;22.20;56.60;;;;;;4942772;28;20063;-62
2023/09/16 09:28:45;;;;;;;6.85;4.25;;;22.20;56.80;;;;;;4943797;28;20055;-63
2023/09/16 09:31:13;;;;;;;8.02;4.43;;;22.30;56.80;;;;;;4940902;28;20051;-67
2023/09/16 09:33:41;;;;;;;6.00;3.80;;;22.30;56.80;;;;;;4940970;28;20055;-61
2023/09/16 09:36:13;;;;;;;6.28;3.97;;;22.40;56.80;;;;;;4939689;28;20062;-62
2023/09/16 09:38:42;;;;;;;5.93;4.18;;;22.40;56.70;;;;;;4940402;28;20419;-62
2023/09/16 09:41:10;;;;;;;6.20;4.07;;;22.50;56.50;;;;;;4942497;28;20066;-63
2023/09/16 09:43:38;;;;;;;4.32;3.50;;;22.50;56.60;;;;;;4939587;28;20519;-63
2023/09/16 09:46:06;;;;;;;5.65;3.72;;;22.60;56.60;;;;;;4939474;28;20055;-66
2023/09/16 09:48:35;;;;;;;5.13;4.10;;;22.60;56.60;;;;;;4944980;28;20054;-62
2023/09/16 09:51:02;;;;;;;4.68;3.85;;;22.70;56.60;;;;;;4945460;28;20047;-61
2023/09/16 09:53:30;;;;;;;5.68;3.85;;;22.70;56.60;;;;;;4941431;28;20051;-62
2023/09/16 09:55:57;;;;;;;5.43;3.92;;;22.80;56.70;;;;;;4944574;28;20400;-60
2023/09/16 09:58:26;;;;;;;4.63;3.58;;;22.80;56.60;;;;;;4944726;28;20054;-61
2023/09/16 10:00:55;;;;;;;5.63;4.05;;;22.90;56.80;;;;;;4945306;28;20066;-63
2023/09/16 10:03:23;;;;;;;5.35;4.50;;;22.90;56.90;;;;;;4943707;28;20052;-61
2023/09/16 10:05:50;;;;;;;10.73;4.15;;;23.00;56.90;;;;;;4942612;28;20059;-63
2023/09/16 10:08:18;;;;;;;6.68;4.15;;;23.10;56.80;;;;;;4943176;28;20066;-64
2023/09/16 10:10:47;;;;;;;6.80;3.95;;;23.10;56.60;;;;;;4944822;28;20059;-67
2023/09/16 10:13:16;;;;;;;5.10;4.30;;;23.10;56.40;;;;;;4944659;28;20063;-64
2023/09/16 10:15:43;;;;;;;4.95;4.10;;;23.20;56.20;;;;;;4942169;28;20392;-63
2023/09/16 10:18:14;;;;;;;4.68;3.92;;;23.20;56.30;;;;;;4943633;28;20051;-63
2023/09/16 10:20:44;;;;;;;5.45;3.92;;;23.30;56.40;;;;;;4944638;28;21524;-63
2023/09/16 10:23:12;;;;;;;7.00;4.25;;;23.30;56.30;;;;;;4942035;28;20085;-61
2023/09/16 10:25:39;;;;;;;5.50;3.97;;;23.40;56.50;;;;;;4944059;28;20499;-62
2023/09/16 10:28:08;;;;;;;5.20;4.05;;;23.40;56.40;;;;;;4944669;28;20055;-62
2023/09/16 10:30:37;;;;;;;4.63;4.10;;;23.50;56.30;;;;;;4943523;28;20058;-61
2023/09/16 10:33:06;;;;;;;6.60;4.53;;;23.60;56.20;;;;;;4943265;28;20058;-61
2023/09/16 10:35:37;;;;;;;5.80;4.25;;;23.60;56.10;;;;;;4941165;28;20062;-63
2023/09/16 10:38:07;;;;;;;6.70;4.30;;;23.60;55.90;;;;;;4943729;28;20051;-64
2023/09/16 10:40:35;;;;;;;5.72;4.55;;;23.70;55.90;;;;;;4945041;28;20078;-60
2023/09/16 10:43:03;;;;;;;6.70;4.28;;;23.70;55.80;;;;;;4944181;28;20051;-61
2023/09/16 10:45:31;;;;;;;5.95;4.07;;;23.80;55.80;;;;;;4933676;28;20427;-61
2023/09/16 10:48:01;;;;;;;5.32;4.35;;;23.80;55.70;;;;;;4939555;28;20066;-61
2023/09/16 10:50:30;;;;;;;5.50;4.13;;;23.80;55.50;;;;;;4938487;28;20055;-63
2023/09/16 10:53:04;;;;;;;7.35;4.47;;;23.90;55.70;;;;;;4941597;28;20051;-62
2023/09/16 10:55:35;;;;;;;;;;;24.00;55.80;;;;;;4942547;28;20078;-63
2023/09/16 10:58:04;;;;;;;8.13;4.55;;;24.00;55.80;;;;;;4941414;28;19926;-66
2023/09/16 11:00:38;;;;;;;8.77;4.63;;;24.10;55.60;;;;;;4940959;28;20056;-63
2023/09/16 11:03:10;;;;;;;6.03;4.53;;;24.10;55.40;;;;;;4942786;28;20066;-62
2023/09/16 11:05:37;;;;;;;4.88;4.15;;;24.10;55.40;;;;;;4942503;28;20055;-64
2023/09/16 11:08:06;;;;;;;4.50;4.00;;;24.20;55.30;;;;;;4942719;29;20062;-62
2023/09/16 11:10:34;;;;;;;5.78;4.47;;;24.20;55.30;;;;;;4943877;28;20062;-62
2023/09/16 11:13:03;;;;;;;6.35;4.45;;;24.20;55.40;;;;;;4940729;28;20059;-62
2023/09/16 11:15:34;;;;;;;5.82;4.78;;;24.30;55.40;;;;;;4943257;28;20066;-62
2023/09/16 11:18:02;;;;;;;4.85;4.28;;;24.30;55.10;;;;;;4942715;28;20061;-64
2023/09/16 11:20:33;;;;;;;4.63;3.80;;;24.40;55.20;;;;;;4941371;28;20063;-62
2023/09/16 11:23:02;;;;;;;5.35;4.13;;;24.40;55.50;;;;;;4940994;28;20051;-63
2023/09/16 11:25:35;;;;;;;5.90;4.20;;;24.50;55.10;;;;;;4943455;28;20051;-61
2023/09/16 11:28:04;;;;;;;5.60;4.10;;;24.50;55.00;;;;;;4943193;28;20059;-62
2023/09/16 11:30:33;;;;;;;5.85;4.97;;;24.50;54.90;;;;;;4943503;28;20495;-61
2023/09/16 11:33:32;;;;;;;6.57;4.75;;;24.60;55.40;;;;;;4941431;28;20055;-62
2023/09/16 11:36:11;;;;;;;6.90;4.35;;;24.70;54.80;;;;;;4921627;29;20064;-62
2023/09/16 11:38:39;;;;;;;4.53;4.10;;;24.70;54.70;;;;;;4921936;29;20518;-61
2023/09/16 11:41:11;;;;;;;5.18;4.68;;;24.80;54.80;;;;;;4924233;29;20488;-62
2023/09/16 11:43:39;;;;;;;4.88;4.15;;;24.80;54.70;;;;;;4923917;29;20047;-61
2023/09/16 11:46:07;;;;;;;5.30;3.80;;;24.90;54.70;;;;;;4922436;29;20055;-62
2023/09/16 11:48:48;;;;;;;6.55;4.05;;;24.90;54.50;;;;;;4922895;29;20056;-60
2023/09/16 11:51:17;;;;;;;10.80;7.22;;;25.00;54.10;;;;;;4921032;29;20047;-63
2023/09/16 11:53:44;;;;;;;7.55;4.53;;;25.00;54.10;;;;;;4923285;29;20059;-62
2023/09/16 11:56:13;;;;;;;4.47;4.07;;;25.00;54.40;;;;;;4921913;29;20056;-60
2023/09/16 11:58:42;;;;;;;4.75;3.95;;;25.10;53.90;;;;;;4923674;29;20141;-61
2023/09/16 12:01:12;;;;;;;4.32;3.90;;;25.10;54.00;;;;;;4922786;29;20070;-62
2023/09/16 12:03:41;;;;;;;6.32;3.80;;;25.20;54.20;;;;;;4920550;29;20114;-62
2023/09/16 12:06:09;;;;;;;4.70;3.80;;;25.20;54.10;;;;;;4919444;29;20047;-63
2023/09/16 12:08:37;;;;;;;4.13;3.70;;;25.30;54.00;;;;;;4923297;29;20055;-63
2023/09/16 12:11:05;;;;;;;6.18;3.63;;;25.30;53.80;;;;;;4922122;29;20078;-65
2023/09/16 12:13:34;;;;;;;4.40;3.70;;;25.40;53.70;;;;;;4920607;29;20071;-64
2023/09/16 12:16:01;;;;;;;5.28;4.03;;;25.40;53.60;;;;;;4921330;29;20050;-63
2023/09/16 12:18:29;;;;;;;4.72;3.38;;;25.40;53.40;;;;;;4921253;29;20064;-62
2023/09/16 12:20:57;;;;;;;4.60;3.55;;;25.40;53.40;;;;;;4918911;29;20055;-61
2023/09/16 12:23:28;;;;;;;5.38;4.00;;;25.50;53.40;;;;;;4920528;29;20082;-62
2023/09/16 12:25:55;;;;;;;4.47;3.53;;;25.60;53.30;;;;;;4923023;29;20440;-63
2023/09/16 12:28:23;;;;;;;5.78;3.72;;;25.60;53.80;;;;;;4922790;29;20055;-61
2023/09/16 12:30:55;;;;;;;4.28;3.35;;;25.60;53.20;;;;;;4919938;29;20423;-61
2023/09/16 12:33:22;;;;;;;4.35;3.47;;;25.60;53.60;;;;;;4924304;29;20508;-61
2023/09/16 12:35:52;;;;;;;4.30;3.13;;;25.70;53.10;;;;;;4939524;29;20070;-69
2023/09/16 12:38:20;;;;;;;4.55;3.20;;;25.70;52.90;;;;;;4942794;28;20066;-64
2023/09/16 12:40:48;;;;;;;3.65;3.35;;;25.70;52.90;;;;;;4942277;28;20059;-62
2023/09/16 12:43:16;;;;;;;4.88;3.38;;;25.80;53.00;;;;;;4940662;28;20512;-62
2023/09/16 12:45:44;;;;;;;4.40;3.30;;;25.80;52.80;;;;;;4941309;28;20062;-60
2023/09/16 12:48:13;;;;;;;3.80;2.88;;;25.80;52.60;;;;;;4942333;28;20055;-62
2023/09/16 12:50:41;;;;;;;3.50;3.13;;;25.90;52.60;;;;;;4941856;28;20059;-63
2023/09/16 12:53:09;;;;;;;3.20;2.90;;;25.90;52.40;;;;;;4941647;28;20419;-56
2023/09/16 12:55:36;;;;;;;6.45;3.33;;;26.00;52.20;;;;;;4941279;28;20058;-56
2023/09/16 12:58:05;;;;;;;3.40;3.08;;;26.00;52.10;;;;;;4942305;28;20081;-57
2023/09/16 13:00:33;;;;;;;5.13;3.35;;;26.00;52.00;;;;;;4942564;28;20059;-60